Portada
METAR-TAF:

METAR-TAF

Aeropuertos :

Burlington Municipal Airport

Burlington, Wisconsin, Estados Unidos

latitud: 42-41-26N, longitud: 088-18-17W, altitud: 237 m

Observación

El informe se hizo hace 29 minutos, a las 18:55 UTC
Viento 11 kt del oeste-suroeste con ráfagas de 15 kt
Temperatura 32°C
Humedad 46%
Presión 1022 hPa
Visibilidad: 16.1 km
Nubes dispersas a una altura de 5000 ft
Nubes dispersas a una altura de 7500 ft

METAR: KBUU 191855Z AUTO 24011G15KT 10SM SCT050 SCT075 32/19 A3019 RMK AO2 T03190193 PWINO

Hora: 14:24 (19:24 UTC)


TAF: falta

Observaciones y pronósticos meteorológicos de más de 4000 aeropuertos (mensajes METAR y TAF).

Los puntos amarillos y rojos representan las estaciones disponibles.

Ponga el ratón en el punto deseado para ver el nombre de la estación.

Haga clic para ver las observaciones y los pronósticos meteorológicos.

Para cambiar el mapa : haga clic en los botones verdes con una cruz de color negro para hacer un zoom, en el botón verde con un guión para alejar o en las flechas verdes para mapas adyacentes.


METAR-TAF: